sensor_id;sensor_type;location;lat;lon;timestamp;P1;durP1;ratioP1;P2;durP2;ratioP2
3747;SDS011;1889;50.058;8.688;2024-03-08T00:01:13;17.65;;;13.20;;
3747;SDS011;1889;50.058;8.688;2024-03-08T00:03:44;16.97;;;12.70;;
3747;SDS011;1889;50.058;8.688;2024-03-08T00:06:14;18.27;;;13.20;;
3747;SDS011;1889;50.058;8.688;2024-03-08T00:08:49;15.63;;;11.75;;
3747;SDS011;1889;50.058;8.688;2024-03-08T00:11:22;13.03;;;11.65;;
3747;SDS011;1889;50.058;8.688;2024-03-08T00:13:53;17.30;;;12.73;;
3747;SDS011;1889;50.058;8.688;2024-03-08T00:16:26;18.62;;;13.72;;
3747;SDS011;1889;50.058;8.688;2024-03-08T00:18:57;15.83;;;12.78;;
3747;SDS011;1889;50.058;8.688;2024-03-08T00:21:26;16.15;;;12.05;;
3747;SDS011;1889;50.058;8.688;2024-03-08T00:23:59;15.40;;;12.47;;
3747;SDS011;1889;50.058;8.688;2024-03-08T00:26:31;15.50;;;12.30;;
3747;SDS011;1889;50.058;8.688;2024-03-08T00:29:05;17.23;;;12.75;;
3747;SDS011;1889;50.058;8.688;2024-03-08T00:31:35;15.53;;;12.25;;
3747;SDS011;1889;50.058;8.688;2024-03-08T00:34:05;14.47;;;11.90;;
3747;SDS011;1889;50.058;8.688;2024-03-08T00:36:36;16.35;;;12.43;;
3747;SDS011;1889;50.058;8.688;2024-03-08T00:39:06;16.25;;;12.03;;
3747;SDS011;1889;50.058;8.688;2024-03-08T00:41:36;16.02;;;11.93;;
3747;SDS011;1889;50.058;8.688;2024-03-08T00:44:17;14.85;;;12.28;;
3747;SDS011;1889;50.058;8.688;2024-03-08T00:46:49;17.20;;;11.83;;
3747;SDS011;1889;50.058;8.688;2024-03-08T00:49:36;16.23;;;12.03;;
3747;SDS011;1889;50.058;8.688;2024-03-08T00:52:06;14.23;;;11.15;;
3747;SDS011;1889;50.058;8.688;2024-03-08T00:57:20;15.05;;;11.40;;
3747;SDS011;1889;50.058;8.688;2024-03-08T00:59:50;13.90;;;11.28;;
3747;SDS011;1889;50.058;8.688;2024-03-08T01:02:25;13.20;;;11.15;;
3747;SDS011;1889;50.058;8.688;2024-03-08T01:04:55;15.85;;;11.88;;
3747;SDS011;1889;50.058;8.688;2024-03-08T01:07:27;16.48;;;11.63;;
3747;SDS011;1889;50.058;8.688;2024-03-08T01:09:58;16.70;;;11.78;;
3747;SDS011;1889;50.058;8.688;2024-03-08T01:12:30;16.20;;;11.95;;
3747;SDS011;1889;50.058;8.688;2024-03-08T01:15:00;15.35;;;12.28;;
3747;SDS011;1889;50.058;8.688;2024-03-08T01:17:30;15.28;;;12.05;;
3747;SDS011;1889;50.058;8.688;2024-03-08T01:20:04;17.73;;;12.88;;
3747;SDS011;1889;50.058;8.688;2024-03-08T01:22:34;16.97;;;12.33;;
3747;SDS011;1889;50.058;8.688;2024-03-08T01:25:13;16.52;;;11.60;;
3747;SDS011;1889;50.058;8.688;2024-03-08T01:27:42;15.65;;;12.28;;
3747;SDS011;1889;50.058;8.688;2024-03-08T01:30:12;16.30;;;11.65;;
3747;SDS011;1889;50.058;8.688;2024-03-08T01:32:43;17.42;;;12.40;;
3747;SDS011;1889;50.058;8.688;2024-03-08T01:35:13;16.17;;;12.10;;
3747;SDS011;1889;50.058;8.688;2024-03-08T01:37:43;15.63;;;11.65;;
3747;SDS011;1889;50.058;8.688;2024-03-08T01:40:12;15.75;;;12.18;;
3747;SDS011;1889;50.058;8.688;2024-03-08T01:42:42;16.42;;;12.03;;
3747;SDS011;1889;50.058;8.688;2024-03-08T01:45:12;16.77;;;12.30;;
3747;SDS011;1889;50.058;8.688;2024-03-08T01:47:42;16.25;;;11.70;;
3747;SDS011;1889;50.058;8.688;2024-03-08T01:50:16;14.33;;;11.28;;
3747;SDS011;1889;50.058;8.688;2024-03-08T01:52:47;16.57;;;12.65;;
3747;SDS011;1889;50.058;8.688;2024-03-08T01:55:23;16.45;;;12.15;;
3747;SDS011;1889;50.058;8.688;2024-03-08T01:57:52;15.83;;;12.35;;
3747;SDS011;1889;50.058;8.688;2024-03-08T02:00:22;15.15;;;12.50;;
3747;SDS011;1889;50.058;8.688;2024-03-08T02:02:53;17.02;;;11.80;;
3747;SDS011;1889;50.058;8.688;2024-03-08T02:05:23;17.57;;;12.50;;
3747;SDS011;1889;50.058;8.688;2024-03-08T02:07:52;15.53;;;12.00;;
3747;SDS011;1889;50.058;8.688;2024-03-08T02:10:22;14.87;;;12.13;;
3747;SDS011;1889;50.058;8.688;2024-03-08T02:12:51;16.75;;;12.63;;
3747;SDS011;1889;50.058;8.688;2024-03-08T02:15:21;19.77;;;12.95;;
3747;SDS011;1889;50.058;8.688;2024-03-08T02:17:50;16.48;;;12.58;;
3747;SDS011;1889;50.058;8.688;2024-03-08T02:20:20;18.67;;;12.03;;
3747;SDS011;1889;50.058;8.688;2024-03-08T02:22:50;15.65;;;12.07;;
3747;SDS011;1889;50.058;8.688;2024-03-08T02:25:19;17.20;;;12.45;;
3747;SDS011;1889;50.058;8.688;2024-03-08T02:27:49;16.80;;;12.78;;
3747;SDS011;1889;50.058;8.688;2024-03-08T02:30:18;17.02;;;12.37;;
3747;SDS011;1889;50.058;8.688;2024-03-08T02:32:48;15.63;;;12.47;;
3747;SDS011;1889;50.058;8.688;2024-03-08T02:35:17;15.05;;;12.43;;
3747;SDS011;1889;50.058;8.688;2024-03-08T02:37:47;18.05;;;13.58;;
3747;SDS011;1889;50.058;8.688;2024-03-08T02:40:16;18.52;;;12.30;;
3747;SDS011;1889;50.058;8.688;2024-03-08T02:42:46;16.15;;;12.68;;
3747;SDS011;1889;50.058;8.688;2024-03-08T02:45:15;16.15;;;12.47;;
3747;SDS011;1889;50.058;8.688;2024-03-08T02:47:44;16.30;;;13.13;;
3747;SDS011;1889;50.058;8.688;2024-03-08T02:50:14;15.60;;;12.10;;
3747;SDS011;1889;50.058;8.688;2024-03-08T02:52:43;16.48;;;13.22;;
3747;SDS011;1889;50.058;8.688;2024-03-08T02:55:13;17.55;;;12.50;;
3747;SDS011;1889;50.058;8.688;2024-03-08T02:57:43;17.62;;;13.00;;
3747;SDS011;1889;50.058;8.688;2024-03-08T03:00:14;17.10;;;13.13;;
3747;SDS011;1889;50.058;8.688;2024-03-08T03:02:44;19.17;;;13.48;;
3747;SDS011;1889;50.058;8.688;2024-03-08T03:05:13;16.93;;;12.58;;
3747;SDS011;1889;50.058;8.688;2024-03-08T03:07:43;19.87;;;12.93;;
3747;SDS011;1889;50.058;8.688;2024-03-08T03:10:12;17.00;;;12.07;;
3747;SDS011;1889;50.058;8.688;2024-03-08T03:12:44;17.92;;;13.18;;
3747;SDS011;1889;50.058;8.688;2024-03-08T03:15:16;16.85;;;13.25;;
3747;SDS011;1889;50.058;8.688;2024-03-08T03:17:49;17.25;;;13.45;;
3747;SDS011;1889;50.058;8.688;2024-03-08T03:20:19;18.60;;;12.65;;
3747;SDS011;1889;50.058;8.688;2024-03-08T03:22:53;17.37;;;12.85;;
3747;SDS011;1889;50.058;8.688;2024-03-08T03:25:24;18.60;;;13.90;;
3747;SDS011;1889;50.058;8.688;2024-03-08T03:27:55;15.65;;;12.35;;
3747;SDS011;1889;50.058;8.688;2024-03-08T03:30:24;17.70;;;13.15;;
3747;SDS011;1889;50.058;8.688;2024-03-08T03:32:54;18.23;;;13.30;;
3747;SDS011;1889;50.058;8.688;2024-03-08T03:35:24;20.85;;;13.45;;
3747;SDS011;1889;50.058;8.688;2024-03-08T03:37:54;16.30;;;12.88;;
3747;SDS011;1889;50.058;8.688;2024-03-08T03:40:38;18.12;;;13.48;;
3747;SDS011;1889;50.058;8.688;2024-03-08T03:43:02;18.37;;;13.25;;
3747;SDS011;1889;50.058;8.688;2024-03-08T03:45:32;18.37;;;13.13;;
3747;SDS011;1889;50.058;8.688;2024-03-08T03:48:02;20.27;;;14.83;;
3747;SDS011;1889;50.058;8.688;2024-03-08T03:50:35;17.85;;;13.55;;
3747;SDS011;1889;50.058;8.688;2024-03-08T03:53:04;21.68;;;13.45;;
3747;SDS011;1889;50.058;8.688;2024-03-08T03:55:37;18.87;;;14.30;;
3747;SDS011;1889;50.058;8.688;2024-03-08T03:58:07;18.45;;;13.65;;
3747;SDS011;1889;50.058;8.688;2024-03-08T04:00:38;18.80;;;13.35;;
3747;SDS011;1889;50.058;8.688;2024-03-08T04:03:08;20.52;;;14.25;;
3747;SDS011;1889;50.058;8.688;2024-03-08T04:05:39;20.48;;;14.07;;
3747;SDS011;1889;50.058;8.688;2024-03-08T04:08:10;19.42;;;13.75;;
3747;SDS011;1889;50.058;8.688;2024-03-08T04:10:39;20.68;;;13.83;;
3747;SDS011;1889;50.058;8.688;2024-03-08T04:13:09;18.90;;;13.78;;
3747;SDS011;1889;50.058;8.688;2024-03-08T04:15:38;18.98;;;13.48;;
3747;SDS011;1889;50.058;8.688;2024-03-08T04:18:08;19.85;;;14.28;;
3747;SDS011;1889;50.058;8.688;2024-03-08T04:20:37;18.52;;;13.43;;
3747;SDS011;1889;50.058;8.688;2024-03-08T04:23:07;17.87;;;13.58;;
3747;SDS011;1889;50.058;8.688;2024-03-08T04:25:37;18.62;;;13.85;;
3747;SDS011;1889;50.058;8.688;2024-03-08T04:28:06;17.70;;;13.05;;
3747;SDS011;1889;50.058;8.688;2024-03-08T04:30:40;19.48;;;13.98;;
3747;SDS011;1889;50.058;8.688;2024-03-08T04:33:09;19.67;;;13.98;;
3747;SDS011;1889;50.058;8.688;2024-03-08T04:35:39;19.20;;;14.80;;
3747;SDS011;1889;50.058;8.688;2024-03-08T04:38:08;20.88;;;14.68;;
3747;SDS011;1889;50.058;8.688;2024-03-08T04:40:37;17.98;;;14.23;;
3747;SDS011;1889;50.058;8.688;2024-03-08T04:43:07;19.70;;;14.63;;
3747;SDS011;1889;50.058;8.688;2024-03-08T04:45:37;20.57;;;14.73;;
3747;SDS011;1889;50.058;8.688;2024-03-08T04:48:08;18.45;;;14.68;;
3747;SDS011;1889;50.058;8.688;2024-03-08T04:50:39;20.43;;;14.95;;
3747;SDS011;1889;50.058;8.688;2024-03-08T04:53:08;18.70;;;14.23;;
3747;SDS011;1889;50.058;8.688;2024-03-08T04:55:37;19.37;;;14.35;;
3747;SDS011;1889;50.058;8.688;2024-03-08T04:58:07;20.90;;;14.47;;
3747;SDS011;1889;50.058;8.688;2024-03-08T05:00:36;20.32;;;14.75;;
3747;SDS011;1889;50.058;8.688;2024-03-08T05:03:05;19.57;;;14.78;;
3747;SDS011;1889;50.058;8.688;2024-03-08T05:05:35;25.10;;;15.28;;
3747;SDS011;1889;50.058;8.688;2024-03-08T05:08:04;20.35;;;14.83;;
3747;SDS011;1889;50.058;8.688;2024-03-08T05:10:34;24.65;;;15.40;;
3747;SDS011;1889;50.058;8.688;2024-03-08T05:13:04;23.62;;;14.80;;
3747;SDS011;1889;50.058;8.688;2024-03-08T05:15:33;21.68;;;14.60;;
3747;SDS011;1889;50.058;8.688;2024-03-08T05:18:03;20.10;;;14.43;;
3747;SDS011;1889;50.058;8.688;2024-03-08T05:20:33;22.10;;;15.68;;
3747;SDS011;1889;50.058;8.688;2024-03-08T05:23:04;20.23;;;14.53;;
3747;SDS011;1889;50.058;8.688;2024-03-08T05:25:34;20.12;;;15.32;;
3747;SDS011;1889;50.058;8.688;2024-03-08T05:28:03;22.85;;;15.53;;
3747;SDS011;1889;50.058;8.688;2024-03-08T05:30:33;22.62;;;15.55;;
3747;SDS011;1889;50.058;8.688;2024-03-08T05:33:03;22.27;;;14.68;;
3747;SDS011;1889;50.058;8.688;2024-03-08T05:35:34;22.27;;;15.80;;
3747;SDS011;1889;50.058;8.688;2024-03-08T05:38:03;21.68;;;15.90;;
3747;SDS011;1889;50.058;8.688;2024-03-08T05:40:33;22.25;;;15.35;;
3747;SDS011;1889;50.058;8.688;2024-03-08T05:43:02;20.32;;;15.65;;
3747;SDS011;1889;50.058;8.688;2024-03-08T05:45:32;20.85;;;14.58;;
3747;SDS011;1889;50.058;8.688;2024-03-08T05:48:02;20.72;;;15.43;;
3747;SDS011;1889;50.058;8.688;2024-03-08T05:50:31;23.50;;;15.28;;
3747;SDS011;1889;50.058;8.688;2024-03-08T05:53:01;20.68;;;15.18;;
3747;SDS011;1889;50.058;8.688;2024-03-08T05:55:30;21.23;;;15.45;;
3747;SDS011;1889;50.058;8.688;2024-03-08T05:58:01;22.62;;;15.53;;
3747;SDS011;1889;50.058;8.688;2024-03-08T06:00:30;22.15;;;14.93;;
3747;SDS011;1889;50.058;8.688;2024-03-08T06:03:00;22.48;;;15.25;;
3747;SDS011;1889;50.058;8.688;2024-03-08T06:05:30;23.30;;;15.53;;
3747;SDS011;1889;50.058;8.688;2024-03-08T06:08:00;19.95;;;15.75;;
3747;SDS011;1889;50.058;8.688;2024-03-08T06:10:29;22.07;;;15.78;;
3747;SDS011;1889;50.058;8.688;2024-03-08T06:12:59;21.10;;;15.28;;
3747;SDS011;1889;50.058;8.688;2024-03-08T06:15:29;21.48;;;16.57;;
3747;SDS011;1889;50.058;8.688;2024-03-08T06:17:58;21.85;;;15.83;;
3747;SDS011;1889;50.058;8.688;2024-03-08T06:20:27;23.30;;;16.60;;
3747;SDS011;1889;50.058;8.688;2024-03-08T06:22:57;22.22;;;16.40;;
3747;SDS011;1889;50.058;8.688;2024-03-08T06:25:27;21.15;;;16.00;;
3747;SDS011;1889;50.058;8.688;2024-03-08T06:27:56;22.73;;;16.57;;
3747;SDS011;1889;50.058;8.688;2024-03-08T06:30:25;22.52;;;16.27;;
3747;SDS011;1889;50.058;8.688;2024-03-08T06:32:55;22.02;;;16.17;;
3747;SDS011;1889;50.058;8.688;2024-03-08T06:35:24;24.75;;;16.82;;
3747;SDS011;1889;50.058;8.688;2024-03-08T06:37:53;23.85;;;16.42;;
3747;SDS011;1889;50.058;8.688;2024-03-08T06:40:23;20.50;;;15.45;;
3747;SDS011;1889;50.058;8.688;2024-03-08T06:42:52;23.05;;;17.52;;
3747;SDS011;1889;50.058;8.688;2024-03-08T06:45:22;23.32;;;16.60;;
3747;SDS011;1889;50.058;8.688;2024-03-08T06:47:51;22.87;;;16.50;;
3747;SDS011;1889;50.058;8.688;2024-03-08T06:50:22;23.55;;;17.23;;
3747;SDS011;1889;50.058;8.688;2024-03-08T06:52:51;23.67;;;15.75;;
3747;SDS011;1889;50.058;8.688;2024-03-08T06:55:21;22.67;;;16.57;;
3747;SDS011;1889;50.058;8.688;2024-03-08T06:57:50;25.77;;;17.62;;
3747;SDS011;1889;50.058;8.688;2024-03-08T07:00:19;20.62;;;15.53;;
3747;SDS011;1889;50.058;8.688;2024-03-08T07:02:50;19.82;;;14.90;;
3747;SDS011;1889;50.058;8.688;2024-03-08T07:05:21;23.57;;;16.90;;
3747;SDS011;1889;50.058;8.688;2024-03-08T07:07:51;24.27;;;16.87;;
3747;SDS011;1889;50.058;8.688;2024-03-08T07:10:22;21.12;;;16.02;;
3747;SDS011;1889;50.058;8.688;2024-03-08T07:12:52;24.52;;;16.87;;
3747;SDS011;1889;50.058;8.688;2024-03-08T07:15:21;23.47;;;16.57;;
3747;SDS011;1889;50.058;8.688;2024-03-08T07:17:51;26.10;;;16.75;;
3747;SDS011;1889;50.058;8.688;2024-03-08T07:20:20;22.00;;;15.45;;
3747;SDS011;1889;50.058;8.688;2024-03-08T07:22:50;28.65;;;15.90;;
3747;SDS011;1889;50.058;8.688;2024-03-08T07:25:19;21.05;;;15.78;;
3747;SDS011;1889;50.058;8.688;2024-03-08T07:27:51;22.62;;;15.50;;
3747;SDS011;1889;50.058;8.688;2024-03-08T07:30:22;23.22;;;16.00;;
3747;SDS011;1889;50.058;8.688;2024-03-08T07:33:13;23.80;;;16.40;;
3747;SDS011;1889;50.058;8.688;2024-03-08T07:35:42;21.07;;;15.85;;
3747;SDS011;1889;50.058;8.688;2024-03-08T07:38:12;22.40;;;15.85;;
3747;SDS011;1889;50.058;8.688;2024-03-08T07:40:42;22.07;;;16.27;;
3747;SDS011;1889;50.058;8.688;2024-03-08T07:43:15;23.25;;;15.75;;
3747;SDS011;1889;50.058;8.688;2024-03-08T07:45:45;23.50;;;16.80;;
3747;SDS011;1889;50.058;8.688;2024-03-08T07:48:14;21.85;;;16.52;;
3747;SDS011;1889;50.058;8.688;2024-03-08T07:50:44;21.77;;;15.05;;
3747;SDS011;1889;50.058;8.688;2024-03-08T07:53:13;22.02;;;15.18;;
3747;SDS011;1889;50.058;8.688;2024-03-08T07:55:42;20.75;;;15.60;;
3747;SDS011;1889;50.058;8.688;2024-03-08T07:58:12;19.48;;;15.03;;
3747;SDS011;1889;50.058;8.688;2024-03-08T08:00:41;24.27;;;16.00;;
3747;SDS011;1889;50.058;8.688;2024-03-08T08:03:10;21.52;;;15.38;;
3747;SDS011;1889;50.058;8.688;2024-03-08T08:05:40;23.07;;;16.55;;
3747;SDS011;1889;50.058;8.688;2024-03-08T08:08:10;21.48;;;16.32;;
3747;SDS011;1889;50.058;8.688;2024-03-08T08:10:39;20.80;;;16.27;;
3747;SDS011;1889;50.058;8.688;2024-03-08T08:13:09;28.32;;;17.85;;
3747;SDS011;1889;50.058;8.688;2024-03-08T08:15:40;25.72;;;18.80;;
3747;SDS011;1889;50.058;8.688;2024-03-08T08:18:10;23.67;;;17.82;;
3747;SDS011;1889;50.058;8.688;2024-03-08T08:20:39;23.42;;;17.27;;
3747;SDS011;1889;50.058;8.688;2024-03-08T08:23:08;21.48;;;16.80;;
3747;SDS011;1889;50.058;8.688;2024-03-08T08:25:38;24.43;;;16.35;;
3747;SDS011;1889;50.058;8.688;2024-03-08T08:28:07;24.43;;;17.70;;
3747;SDS011;1889;50.058;8.688;2024-03-08T08:30:37;20.12;;;15.93;;
3747;SDS011;1889;50.058;8.688;2024-03-08T08:33:06;18.60;;;14.73;;
3747;SDS011;1889;50.058;8.688;2024-03-08T08:35:36;20.75;;;15.78;;
3747;SDS011;1889;50.058;8.688;2024-03-08T08:38:06;18.87;;;15.35;;
3747;SDS011;1889;50.058;8.688;2024-03-08T08:40:35;24.37;;;16.12;;
3747;SDS011;1889;50.058;8.688;2024-03-08T08:43:04;20.20;;;15.35;;
3747;SDS011;1889;50.058;8.688;2024-03-08T08:45:34;20.43;;;15.08;;
3747;SDS011;1889;50.058;8.688;2024-03-08T08:48:03;20.68;;;14.47;;
3747;SDS011;1889;50.058;8.688;2024-03-08T08:50:34;22.37;;;15.43;;
3747;SDS011;1889;50.058;8.688;2024-03-08T08:53:04;19.50;;;15.38;;
3747;SDS011;1889;50.058;8.688;2024-03-08T08:55:34;22.13;;;16.02;;
3747;SDS011;1889;50.058;8.688;2024-03-08T08:58:03;23.35;;;16.25;;
3747;SDS011;1889;50.058;8.688;2024-03-08T09:00:34;19.80;;;14.53;;
3747;SDS011;1889;50.058;8.688;2024-03-08T09:03:04;18.20;;;14.00;;
3747;SDS011;1889;50.058;8.688;2024-03-08T09:05:34;18.00;;;12.80;;
3747;SDS011;1889;50.058;8.688;2024-03-08T09:08:03;17.45;;;12.95;;
3747;SDS011;1889;50.058;8.688;2024-03-08T09:10:33;17.60;;;12.95;;
3747;SDS011;1889;50.058;8.688;2024-03-08T09:13:02;17.10;;;13.10;;
3747;SDS011;1889;50.058;8.688;2024-03-08T09:15:31;20.80;;;14.10;;
3747;SDS011;1889;50.058;8.688;2024-03-08T09:18:01;16.10;;;13.10;;
3747;SDS011;1889;50.058;8.688;2024-03-08T09:20:32;17.32;;;13.32;;
3747;SDS011;1889;50.058;8.688;2024-03-08T09:23:01;17.32;;;13.25;;
3747;SDS011;1889;50.058;8.688;2024-03-08T09:25:31;17.05;;;12.95;;
3747;SDS011;1889;50.058;8.688;2024-03-08T09:28:00;16.60;;;13.20;;
3747;SDS011;1889;50.058;8.688;2024-03-08T09:30:30;19.35;;;14.15;;
3747;SDS011;1889;50.058;8.688;2024-03-08T09:32:59;16.93;;;12.65;;
3747;SDS011;1889;50.058;8.688;2024-03-08T09:35:29;17.45;;;12.93;;
3747;SDS011;1889;50.058;8.688;2024-03-08T09:37:58;14.90;;;12.40;;
3747;SDS011;1889;50.058;8.688;2024-03-08T09:40:28;17.85;;;13.25;;
3747;SDS011;1889;50.058;8.688;2024-03-08T09:42:57;17.15;;;12.65;;
3747;SDS011;1889;50.058;8.688;2024-03-08T09:45:28;17.55;;;12.82;;
3747;SDS011;1889;50.058;8.688;2024-03-08T09:48:00;16.30;;;11.78;;
3747;SDS011;1889;50.058;8.688;2024-03-08T09:50:29;15.65;;;12.37;;
3747;SDS011;1889;50.058;8.688;2024-03-08T09:53:00;18.12;;;13.98;;
3747;SDS011;1889;50.058;8.688;2024-03-08T09:55:30;18.23;;;12.35;;
3747;SDS011;1889;50.058;8.688;2024-03-08T09:58:02;18.00;;;12.63;;
3747;SDS011;1889;50.058;8.688;2024-03-08T10:00:50;14.68;;;11.83;;
3747;SDS011;1889;50.058;8.688;2024-03-08T10:03:20;15.80;;;11.10;;
3747;SDS011;1889;50.058;8.688;2024-03-08T10:05:49;18.17;;;12.43;;
3747;SDS011;1889;50.058;8.688;2024-03-08T10:08:19;15.15;;;11.65;;
3747;SDS011;1889;50.058;8.688;2024-03-08T10:10:50;14.60;;;11.60;;
3747;SDS011;1889;50.058;8.688;2024-03-08T10:13:19;13.83;;;11.45;;
3747;SDS011;1889;50.058;8.688;2024-03-08T10:15:50;15.83;;;12.07;;
3747;SDS011;1889;50.058;8.688;2024-03-08T10:18:19;14.87;;;12.35;;
3747;SDS011;1889;50.058;8.688;2024-03-08T10:21:12;15.55;;;11.55;;
3747;SDS011;1889;50.058;8.688;2024-03-08T10:23:34;16.90;;;11.97;;
3747;SDS011;1889;50.058;8.688;2024-03-08T10:26:14;15.75;;;11.57;;
3747;SDS011;1889;50.058;8.688;2024-03-08T10:28:46;16.77;;;11.45;;
3747;SDS011;1889;50.058;8.688;2024-03-08T10:31:16;16.23;;;11.78;;
3747;SDS011;1889;50.058;8.688;2024-03-08T10:33:47;13.18;;;10.70;;
3747;SDS011;1889;50.058;8.688;2024-03-08T10:36:18;14.53;;;10.88;;
3747;SDS011;1889;50.058;8.688;2024-03-08T10:38:47;13.58;;;10.88;;
3747;SDS011;1889;50.058;8.688;2024-03-08T10:41:20;13.68;;;10.93;;
3747;SDS011;1889;50.058;8.688;2024-03-08T10:44:15;17.10;;;12.28;;
3747;SDS011;1889;50.058;8.688;2024-03-08T10:46:47;14.65;;;11.18;;
3747;SDS011;1889;50.058;8.688;2024-03-08T10:49:18;12.88;;;11.10;;
3747;SDS011;1889;50.058;8.688;2024-03-08T10:51:51;18.07;;;11.60;;
3747;SDS011;1889;50.058;8.688;2024-03-08T10:54:21;15.08;;;11.25;;
3747;SDS011;1889;50.058;8.688;2024-03-08T10:56:53;14.15;;;11.33;;
3747;SDS011;1889;50.058;8.688;2024-03-08T10:59:22;14.10;;;11.38;;
3747;SDS011;1889;50.058;8.688;2024-03-08T11:01:55;14.13;;;10.95;;
3747;SDS011;1889;50.058;8.688;2024-03-08T11:04:24;14.83;;;11.97;;
3747;SDS011;1889;50.058;8.688;2024-03-08T11:07:01;14.30;;;11.22;;
3747;SDS011;1889;50.058;8.688;2024-03-08T11:09:37;13.18;;;11.10;;
3747;SDS011;1889;50.058;8.688;2024-03-08T11:14:53;14.30;;;10.65;;
3747;SDS011;1889;50.058;8.688;2024-03-08T11:20:04;16.30;;;11.20;;
3747;SDS011;1889;50.058;8.688;2024-03-08T11:22:48;13.88;;;10.32;;
3747;SDS011;1889;50.058;8.688;2024-03-08T11:25:31;12.82;;;10.43;;
3747;SDS011;1889;50.058;8.688;2024-03-08T11:28:07;12.82;;;10.03;;
3747;SDS011;1889;50.058;8.688;2024-03-08T11:30:40;14.35;;;10.78;;
3747;SDS011;1889;50.058;8.688;2024-03-08T11:33:12;13.70;;;11.12;;
3747;SDS011;1889;50.058;8.688;2024-03-08T11:35:43;14.03;;;10.58;;
3747;SDS011;1889;50.058;8.688;2024-03-08T11:38:13;13.58;;;9.98;;
3747;SDS011;1889;50.058;8.688;2024-03-08T11:40:44;13.85;;;10.48;;
3747;SDS011;1889;50.058;8.688;2024-03-08T11:43:16;13.20;;;11.15;;
3747;SDS011;1889;50.058;8.688;2024-03-08T11:45:47;13.45;;;10.35;;
3747;SDS011;1889;50.058;8.688;2024-03-08T11:48:16;12.78;;;10.45;;
3747;SDS011;1889;50.058;8.688;2024-03-08T11:50:46;13.78;;;10.60;;
3747;SDS011;1889;50.058;8.688;2024-03-08T11:53:16;13.38;;;10.93;;
3747;SDS011;1889;50.058;8.688;2024-03-08T11:55:46;16.48;;;11.75;;
3747;SDS011;1889;50.058;8.688;2024-03-08T11:58:16;14.07;;;11.70;;
3747;SDS011;1889;50.058;8.688;2024-03-08T12:00:46;13.18;;;11.00;;
3747;SDS011;1889;50.058;8.688;2024-03-08T12:03:16;12.10;;;10.32;;
3747;SDS011;1889;50.058;8.688;2024-03-08T12:05:46;14.33;;;11.20;;
3747;SDS011;1889;50.058;8.688;2024-03-08T12:08:16;12.63;;;10.43;;
3747;SDS011;1889;50.058;8.688;2024-03-08T12:10:46;12.82;;;11.22;;
3747;SDS011;1889;50.058;8.688;2024-03-08T12:13:16;13.45;;;11.12;;
3747;SDS011;1889;50.058;8.688;2024-03-08T12:15:45;15.23;;;11.50;;
3747;SDS011;1889;50.058;8.688;2024-03-08T12:18:15;13.65;;;11.18;;
3747;SDS011;1889;50.058;8.688;2024-03-08T12:20:44;13.05;;;10.93;;
3747;SDS011;1889;50.058;8.688;2024-03-08T12:23:15;15.88;;;10.98;;
3747;SDS011;1889;50.058;8.688;2024-03-08T12:25:44;14.40;;;11.53;;
3747;SDS011;1889;50.058;8.688;2024-03-08T12:28:15;15.55;;;11.60;;
3747;SDS011;1889;50.058;8.688;2024-03-08T12:30:46;11.93;;;10.53;;
3747;SDS011;1889;50.058;8.688;2024-03-08T12:33:21;12.60;;;11.05;;
3747;SDS011;1889;50.058;8.688;2024-03-08T12:35:51;13.78;;;11.30;;
3747;SDS011;1889;50.058;8.688;2024-03-08T12:38:22;13.35;;;11.15;;
3747;SDS011;1889;50.058;8.688;2024-03-08T12:40:55;15.43;;;11.63;;
3747;SDS011;1889;50.058;8.688;2024-03-08T12:43:27;12.85;;;10.90;;
3747;SDS011;1889;50.058;8.688;2024-03-08T12:46:01;16.05;;;12.05;;
3747;SDS011;1889;50.058;8.688;2024-03-08T12:48:35;15.25;;;11.05;;
3747;SDS011;1889;50.058;8.688;2024-03-08T12:51:06;12.25;;;10.93;;
3747;SDS011;1889;50.058;8.688;2024-03-08T12:53:36;16.17;;;11.83;;
3747;SDS011;1889;50.058;8.688;2024-03-08T12:56:07;15.10;;;12.10;;
3747;SDS011;1889;50.058;8.688;2024-03-08T12:58:36;14.15;;;11.57;;
3747;SDS011;1889;50.058;8.688;2024-03-08T13:01:10;14.85;;;11.85;;
3747;SDS011;1889;50.058;8.688;2024-03-08T13:03:39;13.28;;;11.60;;
3747;SDS011;1889;50.058;8.688;2024-03-08T13:06:10;12.80;;;11.33;;
3747;SDS011;1889;50.058;8.688;2024-03-08T13:08:40;13.72;;;11.18;;
3747;SDS011;1889;50.058;8.688;2024-03-08T13:11:11;14.45;;;11.35;;
3747;SDS011;1889;50.058;8.688;2024-03-08T13:13:41;12.95;;;10.50;;
3747;SDS011;1889;50.058;8.688;2024-03-08T13:16:11;13.78;;;11.12;;
3747;SDS011;1889;50.058;8.688;2024-03-08T13:18:45;13.75;;;10.60;;
3747;SDS011;1889;50.058;8.688;2024-03-08T13:21:16;13.78;;;10.90;;
3747;SDS011;1889;50.058;8.688;2024-03-08T13:23:47;17.52;;;11.97;;
3747;SDS011;1889;50.058;8.688;2024-03-08T13:26:17;12.53;;;10.93;;
3747;SDS011;1889;50.058;8.688;2024-03-08T13:28:46;14.05;;;11.10;;
3747;SDS011;1889;50.058;8.688;2024-03-08T13:31:21;12.98;;;10.55;;
3747;SDS011;1889;50.058;8.688;2024-03-08T13:33:50;19.30;;;12.43;;
3747;SDS011;1889;50.058;8.688;2024-03-08T13:36:21;14.00;;;11.78;;
3747;SDS011;1889;50.058;8.688;2024-03-08T13:38:52;16.67;;;12.10;;
3747;SDS011;1889;50.058;8.688;2024-03-08T13:41:21;14.03;;;11.22;;
3747;SDS011;1889;50.058;8.688;2024-03-08T13:43:52;14.75;;;11.08;;
3747;SDS011;1889;50.058;8.688;2024-03-08T13:46:23;14.23;;;10.70;;
3747;SDS011;1889;50.058;8.688;2024-03-08T13:48:54;11.97;;;10.15;;
3747;SDS011;1889;50.058;8.688;2024-03-08T13:51:24;12.78;;;10.53;;
3747;SDS011;1889;50.058;8.688;2024-03-08T13:53:54;14.03;;;10.58;;
3747;SDS011;1889;50.058;8.688;2024-03-08T13:56:23;11.45;;;10.25;;
3747;SDS011;1889;50.058;8.688;2024-03-08T13:58:52;13.98;;;11.40;;
3747;SDS011;1889;50.058;8.688;2024-03-08T14:01:23;13.30;;;11.05;;
3747;SDS011;1889;50.058;8.688;2024-03-08T14:03:53;13.95;;;10.88;;
3747;SDS011;1889;50.058;8.688;2024-03-08T14:06:23;12.82;;;11.43;;
3747;SDS011;1889;50.058;8.688;2024-03-08T14:08:53;16.52;;;12.45;;
3747;SDS011;1889;50.058;8.688;2024-03-08T14:11:24;13.68;;;11.55;;
3747;SDS011;1889;50.058;8.688;2024-03-08T14:13:53;13.80;;;11.70;;
3747;SDS011;1889;50.058;8.688;2024-03-08T14:16:22;15.32;;;12.35;;
3747;SDS011;1889;50.058;8.688;2024-03-08T14:18:52;16.60;;;11.90;;
3747;SDS011;1889;50.058;8.688;2024-03-08T14:21:21;13.53;;;10.70;;
3747;SDS011;1889;50.058;8.688;2024-03-08T14:23:51;16.60;;;11.68;;
3747;SDS011;1889;50.058;8.688;2024-03-08T14:26:20;12.50;;;10.78;;
3747;SDS011;1889;50.058;8.688;2024-03-08T14:28:49;14.80;;;11.90;;
3747;SDS011;1889;50.058;8.688;2024-03-08T14:31:20;13.95;;;11.95;;
3747;SDS011;1889;50.058;8.688;2024-03-08T14:33:51;14.38;;;11.60;;
3747;SDS011;1889;50.058;8.688;2024-03-08T14:36:21;17.12;;;11.97;;
3747;SDS011;1889;50.058;8.688;2024-03-08T14:38:51;15.23;;;11.65;;
3747;SDS011;1889;50.058;8.688;2024-03-08T14:41:20;14.18;;;11.48;;
3747;SDS011;1889;50.058;8.688;2024-03-08T14:43:54;13.98;;;11.65;;
3747;SDS011;1889;50.058;8.688;2024-03-08T14:46:24;13.13;;;10.98;;
3747;SDS011;1889;50.058;8.688;2024-03-08T14:48:54;12.90;;;11.03;;
3747;SDS011;1889;50.058;8.688;2024-03-08T14:51:25;18.02;;;12.50;;
3747;SDS011;1889;50.058;8.688;2024-03-08T14:53:55;12.75;;;11.38;;
3747;SDS011;1889;50.058;8.688;2024-03-08T14:56:24;13.72;;;10.95;;
3747;SDS011;1889;50.058;8.688;2024-03-08T14:58:54;13.50;;;12.10;;
3747;SDS011;1889;50.058;8.688;2024-03-08T15:01:25;13.58;;;11.90;;
3747;SDS011;1889;50.058;8.688;2024-03-08T15:03:56;12.33;;;10.88;;
3747;SDS011;1889;50.058;8.688;2024-03-08T15:06:27;12.28;;;10.65;;
3747;SDS011;1889;50.058;8.688;2024-03-08T15:08:58;13.90;;;11.63;;
3747;SDS011;1889;50.058;8.688;2024-03-08T15:11:28;12.95;;;11.48;;
3747;SDS011;1889;50.058;8.688;2024-03-08T15:13:57;14.87;;;10.88;;
3747;SDS011;1889;50.058;8.688;2024-03-08T15:16:28;13.83;;;11.50;;